createdAt,value
2022-08-22T00:00:51.043Z,3.10
2022-08-22T00:03:00.777Z,3.00
2022-08-22T00:03:10.286Z,3.33
2022-08-22T00:04:02.880Z,3.20
2022-08-22T00:07:22.419Z,3.40
2022-08-22T00:10:34.059Z,2.90
2022-08-22T00:13:59.239Z,3.30
2022-08-22T00:17:13.347Z,2.95
2022-08-22T00:20:19.638Z,3.50
2022-08-22T00:23:44.122Z,3.65
2022-08-22T00:26:53.795Z,3.50
2022-08-22T00:30:13.388Z,3.40
2022-08-22T00:33:28.436Z,3.17
2022-08-22T00:36:47.916Z,3.35
2022-08-22T00:40:19.812Z,3.50
2022-08-22T00:43:42.868Z,3.33
2022-08-22T00:46:57.024Z,3.15
2022-08-22T00:50:26.336Z,3.40
2022-08-22T00:53:31.262Z,3.20
2022-08-22T00:56:55.240Z,3.42
2022-08-22T01:00:00.239Z,3.20
2022-08-22T01:03:26.929Z,3.30
2022-08-22T01:06:31.710Z,3.97
2022-08-22T01:09:52.937Z,3.28
2022-08-22T01:13:03.852Z,3.35
2022-08-22T01:16:49.190Z,3.70
2022-08-22T01:20:15.797Z,3.33
2022-08-22T01:23:56.415Z,3.38
2022-08-22T01:27:39.600Z,3.22
2022-08-22T01:34:37.752Z,3.88
2022-08-22T01:37:54.832Z,3.60
2022-08-22T01:41:21.131Z,3.83
2022-08-22T01:44:32.410Z,3.50
2022-08-22T01:48:20.451Z,3.70
2022-08-22T01:51:25.012Z,3.92
2022-08-22T01:54:50.781Z,3.83
2022-08-22T01:57:55.063Z,3.78
2022-08-22T02:01:03.949Z,3.90
2022-08-22T02:04:07.526Z,3.90
2022-08-22T02:07:21.002Z,4.13
2022-08-22T02:10:45.413Z,3.72
2022-08-22T02:13:55.019Z,3.97
2022-08-22T02:17:10.072Z,3.60
2022-08-22T02:20:24.514Z,3.38
2022-08-22T02:23:48.224Z,3.72
2022-08-22T02:27:05.329Z,3.42
2022-08-22T02:30:12.865Z,3.15
2022-08-22T02:33:34.434Z,3.45
2022-08-22T02:36:49.279Z,3.63
2022-08-22T02:39:57.209Z,3.30
2022-08-22T02:43:18.500Z,3.75
2022-08-22T02:46:52.832Z,3.63
2022-08-22T02:50:23.909Z,3.72
2022-08-22T02:53:40.022Z,3.58
2022-08-22T02:56:50.181Z,3.85
2022-08-22T03:03:38.476Z,3.55
2022-08-22T03:06:43.958Z,3.97
2022-08-22T03:09:45.888Z,3.70
2022-08-22T03:13:02.534Z,3.90
2022-08-22T03:16:16.655Z,3.80
2022-08-22T03:19:21.357Z,4.22
2022-08-22T03:22:31.459Z,3.53
2022-08-22T03:26:14.322Z,3.53
2022-08-22T03:29:45.384Z,3.45
2022-08-22T03:32:59.509Z,3.63
2022-08-22T03:36:16.600Z,3.88
2022-08-22T03:39:19.476Z,4.03
2022-08-22T03:42:49.229Z,4.25
2022-08-22T03:46:33.937Z,3.70
2022-08-22T03:49:38.867Z,3.88
2022-08-22T03:53:15.328Z,3.50
2022-08-22T03:56:38.610Z,3.97
2022-08-22T04:00:12.728Z,3.47
2022-08-22T04:03:21.307Z,3.88
2022-08-22T04:06:41.927Z,3.60
2022-08-22T04:09:52.447Z,3.70
2022-08-22T04:13:09.148Z,3.30
2022-08-22T04:16:14.134Z,3.55
2022-08-22T04:19:54.198Z,3.13
2022-08-22T04:23:31.054Z,3.15
2022-08-22T04:26:56.951Z,3.30
2022-08-22T04:30:04.411Z,3.30
2022-08-22T04:33:14.533Z,3.55
2022-08-22T04:36:23.395Z,3.50
2022-08-22T04:39:42.492Z,3.55
2022-08-22T04:42:49.717Z,3.92
2022-08-22T04:46:11.971Z,3.28
2022-08-22T04:49:19.836Z,3.75
2022-08-22T04:52:24.504Z,3.28
2022-08-22T04:55:43.352Z,3.72
2022-08-22T04:58:54.465Z,3.10
2022-08-22T05:01:59.915Z,3.40
2022-08-22T05:05:13.833Z,3.53
2022-08-22T05:08:31.087Z,3.78
2022-08-22T05:11:33.236Z,3.50
2022-08-22T05:14:42.660Z,3.45
2022-08-22T05:17:44.648Z,3.65
2022-08-22T05:20:47.836Z,3.42
2022-08-22T05:24:05.582Z,4.85
2022-08-22T05:27:24.612Z,3.65
2022-08-22T05:30:27.919Z,3.80
2022-08-22T05:33:34.944Z,3.90
2022-08-22T05:36:45.682Z,3.65
2022-08-22T05:39:49.318Z,3.70
2022-08-22T05:42:51.288Z,3.90
2022-08-22T05:45:53.200Z,3.83
2022-08-22T05:48:57.375Z,3.25
2022-08-22T05:52:18.053Z,3.53
2022-08-22T05:55:44.009Z,3.25
2022-08-22T05:58:54.348Z,3.42
2022-08-22T06:02:06.049Z,3.58
2022-08-22T06:05:11.866Z,3.17
2022-08-22T06:08:25.233Z,2.88
2022-08-22T06:11:40.851Z,3.65
2022-08-22T06:14:49.027Z,3.28
2022-08-22T06:18:01.673Z,3.13
2022-08-22T06:21:05.044Z,3.53
2022-08-22T06:24:08.747Z,3.20
2022-08-22T06:27:12.922Z,2.92
2022-08-22T06:30:15.400Z,3.45
2022-08-22T06:33:19.043Z,3.47
2022-08-22T06:36:34.108Z,2.95
2022-08-22T06:39:38.749Z,2.70
2022-08-22T06:42:42.608Z,2.60
2022-08-22T06:45:44.504Z,2.42
2022-08-22T06:48:46.851Z,2.42
2022-08-22T06:51:48.819Z,2.50
2022-08-22T06:54:57.476Z,2.42
2022-08-22T06:58:04.080Z,2.38
2022-08-22T07:01:18.599Z,2.40
2022-08-22T07:04:25.995Z,2.58
2022-08-22T07:07:27.953Z,2.63
2022-08-22T07:10:29.833Z,2.45
2022-08-22T07:13:31.794Z,2.67
2022-08-22T07:16:44.952Z,2.92
2022-08-22T07:19:57.404Z,2.22
2022-08-22T07:23:10.680Z,2.45
2022-08-22T07:26:31.149Z,2.50
2022-08-22T07:30:00.425Z,2.25
2022-08-22T07:33:26.702Z,2.22
2022-08-22T07:36:46.112Z,2.30
2022-08-22T07:39:58.084Z,2.22
2022-08-22T07:43:35.532Z,2.83
2022-08-22T07:46:41.346Z,2.30
2022-08-22T07:49:49.736Z,2.22
2022-08-22T07:52:51.875Z,2.10
2022-08-22T07:55:55.445Z,2.13
2022-08-22T07:59:00.016Z,2.25
2022-08-22T08:02:01.956Z,2.20
2022-08-22T08:05:04.127Z,2.28
2022-08-22T08:08:09.071Z,2.78
2022-08-22T08:11:18.973Z,2.15
2022-08-22T08:14:22.125Z,1.92
2022-08-22T08:17:32.065Z,2.47
2022-08-22T08:23:45.332Z,2.72
2022-08-22T08:27:12.600Z,2.20
2022-08-22T08:30:44.606Z,2.35
2022-08-22T08:33:48.339Z,1.80
2022-08-22T08:37:13.529Z,2.13
2022-08-22T08:40:44.021Z,2.13
2022-08-22T08:43:53.623Z,2.40
2022-08-22T08:47:17.077Z,1.98
2022-08-22T08:50:37.646Z,1.92
2022-08-22T08:53:58.610Z,1.98
2022-08-22T08:57:12.580Z,2.53
2022-08-22T09:00:23.707Z,2.10
2022-08-22T09:04:04.529Z,2.13
2022-08-22T09:07:37.000Z,2.40
2022-08-22T09:10:59.868Z,2.10
2022-08-22T09:14:35.597Z,2.13
2022-08-22T09:17:43.968Z,2.00
2022-08-22T09:21:12.629Z,2.30
2022-08-22T09:24:45.117Z,2.45
2022-08-22T09:28:02.960Z,2.40
2022-08-22T09:31:44.759Z,2.30
2022-08-22T09:35:01.988Z,1.90
2022-08-22T09:38:23.594Z,1.80
2022-08-22T09:41:39.510Z,1.60
2022-08-22T09:45:05.523Z,1.80
2022-08-22T09:48:22.586Z,1.88
2022-08-22T09:51:33.126Z,1.67
2022-08-22T09:54:48.806Z,1.15
2022-08-22T09:58:03.295Z,1.70
2022-08-22T10:01:18.483Z,1.50
2022-08-22T10:04:23.154Z,1.40
2022-08-22T10:07:58.521Z,1.50
2022-08-22T10:11:22.976Z,1.50
2022-08-22T10:14:56.123Z,1.20
2022-08-22T10:18:06.989Z,1.80
2022-08-22T10:21:18.768Z,1.40
2022-08-22T10:24:43.862Z,1.30
2022-08-22T10:28:14.267Z,1.40
2022-08-22T10:31:30.270Z,1.85
2022-08-22T10:34:35.813Z,2.20
2022-08-22T10:37:46.044Z,1.98
2022-08-22T10:41:03.506Z,2.10
2022-08-22T10:44:20.022Z,1.90
2022-08-22T10:47:26.590Z,1.77
2022-08-22T10:50:35.611Z,1.50
2022-08-22T10:53:55.910Z,1.40
2022-08-22T10:57:13.664Z,2.05
2022-08-22T11:00:31.259Z,2.00
2022-08-22T11:04:03.680Z,1.90
2022-08-22T11:07:35.029Z,1.50
2022-08-22T11:10:59.297Z,2.00
2022-08-22T11:14:20.099Z,1.90
2022-08-22T11:17:28.791Z,1.63
2022-08-22T11:20:54.963Z,1.65
2022-08-22T11:24:17.184Z,1.70
2022-08-22T11:27:40.105Z,1.50
2022-08-22T11:31:10.418Z,1.83
2022-08-22T11:34:20.527Z,1.50
2022-08-22T11:37:23.808Z,1.90
2022-08-22T11:40:38.594Z,1.67
2022-08-22T11:43:44.024Z,1.80
2022-08-22T11:46:47.461Z,1.65
2022-08-22T11:49:57.561Z,1.83
2022-08-22T11:53:23.017Z,1.88
2022-08-22T11:56:32.879Z,2.20
2022-08-22T12:00:12.985Z,1.60
2022-08-22T12:03:33.287Z,1.95
2022-08-22T12:06:49.727Z,1.80
2022-08-22T12:09:56.104Z,2.08
2022-08-22T12:13:16.036Z,2.30
2022-08-22T12:16:33.320Z,2.20
2022-08-22T12:20:16.126Z,1.58
2022-08-22T12:23:49.276Z,1.55
2022-08-22T12:27:09.992Z,1.65
2022-08-22T12:30:32.732Z,1.50
2022-08-22T12:33:44.880Z,1.70
2022-08-22T12:37:15.714Z,1.80
2022-08-22T12:40:43.827Z,1.73
2022-08-22T12:43:52.661Z,1.80
2022-08-22T12:47:13.836Z,1.98
2022-08-22T12:50:34.416Z,1.90
2022-08-22T12:53:59.890Z,1.60
2022-08-22T12:57:25.262Z,2.00
2022-08-22T13:00:30.817Z,2.22
2022-08-22T13:03:35.448Z,1.52
2022-08-22T13:06:38.474Z,1.67
2022-08-22T13:09:40.880Z,1.60
2022-08-22T13:12:50.414Z,2.00
2022-08-22T13:15:58.973Z,1.35
2022-08-22T13:19:07.455Z,1.63
2022-08-22T13:22:19.692Z,1.17
2022-08-22T13:25:25.930Z,1.50
2022-08-22T13:28:28.921Z,1.50
2022-08-22T13:31:33.495Z,1.50
2022-08-22T13:34:39.651Z,1.50
2022-08-22T13:37:45.055Z,1.80
2022-08-22T13:40:52.132Z,1.80
2022-08-22T13:43:58.044Z,1.77
2022-08-22T13:47:14.759Z,2.33
2022-08-22T13:50:28.796Z,2.42
2022-08-22T13:53:39.537Z,2.20
2022-08-22T13:56:47.925Z,2.50
2022-08-22T14:00:06.114Z,2.42
2022-08-22T14:03:13.182Z,2.50
2022-08-22T14:06:37.824Z,2.63
2022-08-22T14:09:54.662Z,2.80
2022-08-22T14:12:56.611Z,2.65
2022-08-22T14:16:02.646Z,2.50
2022-08-22T14:19:08.266Z,2.88
2022-08-22T14:22:19.911Z,2.80
2022-08-22T14:25:23.382Z,2.95
2022-08-22T14:28:28.732Z,2.78
2022-08-22T14:31:31.174Z,3.15
2022-08-22T14:34:36.796Z,2.55
2022-08-22T14:37:41.016Z,2.40
2022-08-22T14:40:42.977Z,2.47
2022-08-22T14:43:58.570Z,2.40
2022-08-22T14:47:03.706Z,2.38
2022-08-22T14:50:11.164Z,2.20
2022-08-22T14:53:22.117Z,2.20
2022-08-22T14:56:28.080Z,2.10
2022-08-22T14:59:50.278Z,2.35
2022-08-22T15:02:52.434Z,2.08
2022-08-22T15:06:03.506Z,1.80
2022-08-22T15:09:28.393Z,1.65
2022-08-22T15:12:47.741Z,1.70
2022-08-22T15:15:54.973Z,1.60
2022-08-22T15:18:59.026Z,1.60
2022-08-22T15:22:13.670Z,1.40
2022-08-22T15:25:27.885Z,1.48
2022-08-22T15:28:35.935Z,1.60
2022-08-22T15:31:56.688Z,1.70
2022-08-22T15:35:05.634Z,1.70
2022-08-22T15:38:31.671Z,1.95
2022-08-22T15:41:36.758Z,2.08
2022-08-22T15:44:40.560Z,1.83
2022-08-22T15:47:49.482Z,2.10
2022-08-22T15:51:02.471Z,2.20
2022-08-22T15:54:16.443Z,1.90
2022-08-22T15:57:31.829Z,2.20
2022-08-22T16:00:44.836Z,1.90
2022-08-22T16:03:56.453Z,2.05
2022-08-22T16:07:00.476Z,1.60
2022-08-22T16:10:11.751Z,1.50
2022-08-22T16:13:32.207Z,1.70
2022-08-22T16:16:54.022Z,1.70
2022-08-22T16:20:19.698Z,1.70
2022-08-22T16:23:22.686Z,1.50
2022-08-22T16:26:30.793Z,1.77
2022-08-22T16:29:41.596Z,1.98
2022-08-22T16:32:51.230Z,1.87
2022-08-22T16:36:21.368Z,2.42
2022-08-22T16:39:23.253Z,2.15
2022-08-22T16:42:26.513Z,2.00
2022-08-22T16:45:41.763Z,1.98
2022-08-22T16:48:43.672Z,1.65
2022-08-22T16:52:43.358Z,1.70
2022-08-22T16:56:18.437Z,1.75
2022-08-22T16:59:38.528Z,1.92
2022-08-22T17:02:49.482Z,1.60
2022-08-22T17:05:54.468Z,1.50
2022-08-22T17:09:33.651Z,1.70
2022-08-22T17:12:54.492Z,2.03
2022-08-22T17:16:15.668Z,1.58
2022-08-22T17:19:28.621Z,1.90
2022-08-22T17:22:39.192Z,2.05
2022-08-22T17:26:01.863Z,2.30
2022-08-22T17:29:34.601Z,3.45
2022-08-22T17:32:59.128Z,1.95
2022-08-22T17:36:26.881Z,2.20
2022-08-22T17:39:35.085Z,2.00
2022-08-22T17:43:04.192Z,2.17
2022-08-22T17:46:54.583Z,1.60
2022-08-22T17:50:28.919Z,1.60
2022-08-22T17:53:36.953Z,1.83
2022-08-22T17:56:41.872Z,1.52
2022-08-22T17:59:54.855Z,1.50
2022-08-22T18:03:16.228Z,1.67
2022-08-22T18:06:30.385Z,1.70
2022-08-22T18:09:37.114Z,1.60
2022-08-22T18:12:48.209Z,1.67
2022-08-22T18:15:57.571Z,1.67
2022-08-22T18:19:12.503Z,1.60
2022-08-22T18:22:33.540Z,1.90
2022-08-22T18:25:43.915Z,2.13
2022-08-22T18:28:50.468Z,2.15
2022-08-22T18:32:15.481Z,1.90
2022-08-22T18:35:26.689Z,2.10
2022-08-22T18:38:57.850Z,1.83
2022-08-22T18:42:25.035Z,1.70
2022-08-22T18:45:45.863Z,1.90
2022-08-22T18:49:13.598Z,1.80
2022-08-22T18:52:09.793Z,2.20
2022-08-22T18:55:17.656Z,2.00
2022-08-22T18:58:44.820Z,2.47
2022-08-22T19:02:08.600Z,2.30
2022-08-22T19:05:22.396Z,2.22
2022-08-22T19:08:44.953Z,2.33
2022-08-22T19:11:52.156Z,1.95
2022-08-22T19:15:03.241Z,1.98
2022-08-22T19:18:29.144Z,1.75
2022-08-22T19:21:51.513Z,1.83
2022-08-22T19:25:12.599Z,1.80
2022-08-22T19:28:14.537Z,1.70
2022-08-22T19:31:25.933Z,1.90
2022-08-22T19:34:30.703Z,1.70
2022-08-22T19:37:46.668Z,1.58
2022-08-22T19:40:57.019Z,2.00
2022-08-22T19:44:00.359Z,1.70
2022-08-22T19:47:17.654Z,2.00
2022-08-22T19:50:21.288Z,1.98
2022-08-22T19:53:24.678Z,1.88
2022-08-22T19:56:37.283Z,2.22
2022-08-22T20:00:00.364Z,1.92
2022-08-22T20:03:08.814Z,2.28
2022-08-22T20:06:33.654Z,2.30
2022-08-22T20:10:00.217Z,2.50
2022-08-22T20:13:05.523Z,2.42
2022-08-22T20:16:18.626Z,2.90
2022-08-22T20:19:21.535Z,3.30
2022-08-22T20:22:38.919Z,3.65
2022-08-22T20:25:50.276Z,3.60
2022-08-22T20:28:53.295Z,4.10
2022-08-22T20:31:58.619Z,4.35
2022-08-22T20:35:01.361Z,4.35
2022-08-22T20:38:07.051Z,4.50
2022-08-22T20:41:23.750Z,4.13
2022-08-22T20:44:46.507Z,4.00
2022-08-22T20:47:55.733Z,4.10
2022-08-22T20:54:20.417Z,3.60
2022-08-22T20:57:22.878Z,3.70
2022-08-22T21:00:47.572Z,3.47
2022-08-22T21:03:50.192Z,3.38
2022-08-22T21:06:59.889Z,3.42
2022-08-22T21:10:23.918Z,3.63
2022-08-22T21:13:26.945Z,2.60
2022-08-22T21:16:32.944Z,2.50
2022-08-22T21:19:34.901Z,2.55
2022-08-22T21:22:36.833Z,2.30
2022-08-22T21:26:02.633Z,2.33
2022-08-22T21:29:09.086Z,2.05
2022-08-22T21:32:14.058Z,2.03
2022-08-22T21:35:22.360Z,2.20
2022-08-22T21:38:24.338Z,2.13
2022-08-22T21:41:32.676Z,2.30
2022-08-22T21:44:36.475Z,2.42
2022-08-22T21:47:40.920Z,2.30
2022-08-22T21:50:42.835Z,2.50
2022-08-22T21:53:44.729Z,2.55
2022-08-22T21:56:47.434Z,2.42
2022-08-22T21:59:59.387Z,2.70
2022-08-22T22:03:02.848Z,2.47
2022-08-22T22:06:06.044Z,2.85
2022-08-22T22:09:10.921Z,3.00
2022-08-22T22:12:16.570Z,2.75
2022-08-22T22:15:22.568Z,3.38
2022-08-22T22:18:26.576Z,3.50
2022-08-22T22:21:28.788Z,3.20
2022-08-22T22:27:32.878Z,3.40
2022-08-22T22:30:37.683Z,3.50
2022-08-22T22:33:40.497Z,2.97
2022-08-22T22:36:42.448Z,3.42
2022-08-22T22:39:44.433Z,3.15
2022-08-22T22:42:46.455Z,3.30
2022-08-22T22:45:48.426Z,3.28
2022-08-22T22:48:50.550Z,3.22
2022-08-22T22:51:52.492Z,2.58
2022-08-22T22:54:54.543Z,3.00
2022-08-22T22:57:59.130Z,2.67
2022-08-22T23:01:09.567Z,3.13
2022-08-22T23:04:11.531Z,3.15
2022-08-22T23:07:14.244Z,2.95
2022-08-22T23:10:21.365Z,2.80
2022-08-22T23:13:23.933Z,2.60
2022-08-22T23:16:28.007Z,3.20
2022-08-22T23:19:30.392Z,3.35
2022-08-22T23:22:32.399Z,3.35
2022-08-22T23:25:34.529Z,3.03
2022-08-22T23:31:43.449Z,3.30
2022-08-22T23:34:46.480Z,3.00
2022-08-22T23:37:48.388Z,3.17
2022-08-22T23:40:50.361Z,2.95
2022-08-22T23:43:53.216Z,3.47
2022-08-22T23:46:55.412Z,2.95
2022-08-22T23:56:19.673Z,3.50
2022-08-22T23:59:24.728Z,3.17
